createdAt,value
2019-06-20T00:00:46.578Z,20.87
2019-06-20T00:03:17.422Z,20.70
2019-06-20T00:05:47.936Z,19.97
2019-06-20T00:08:18.439Z,20.37
2019-06-20T00:10:49.087Z,20.60
2019-06-20T00:13:19.539Z,21.40
2019-06-20T00:15:50.245Z,20.87
2019-06-20T00:18:20.714Z,21.13
2019-06-20T00:20:51.161Z,21.23
2019-06-20T00:23:21.848Z,21.63
2019-06-20T00:25:52.424Z,22.27
2019-06-20T00:28:22.877Z,22.57
2019-06-20T00:30:53.493Z,22.97
2019-06-20T00:33:24.010Z,22.60
2019-06-20T00:35:54.650Z,24.07
2019-06-20T00:38:25.109Z,23.97
2019-06-20T00:40:55.577Z,23.77
2019-06-20T00:43:26.271Z,24.50
2019-06-20T00:45:56.749Z,23.30
2019-06-20T00:48:27.549Z,24.00
2019-06-20T00:50:57.937Z,23.47
2019-06-20T00:53:28.393Z,23.27
2019-06-20T00:55:58.821Z,23.63
2019-06-20T00:58:29.407Z,24.13
2019-06-20T01:00:59.850Z,22.73
2019-06-20T01:03:30.233Z,23.73
2019-06-20T01:06:00.668Z,23.50
2019-06-20T01:08:31.268Z,24.53
2019-06-20T01:11:01.759Z,23.97
2019-06-20T01:13:34.519Z,24.03
2019-06-20T01:16:06.578Z,25.10
2019-06-20T01:18:36.982Z,24.77
2019-06-20T01:21:08.963Z,23.77
2019-06-20T01:23:39.411Z,24.33
2019-06-20T01:26:10.146Z,23.97
2019-06-20T01:28:40.637Z,25.60
2019-06-20T01:31:11.118Z,24.87
2019-06-20T01:33:41.532Z,24.37
2019-06-20T01:36:12.158Z,24.93
2019-06-20T01:38:42.586Z,24.87
2019-06-20T01:41:13.392Z,26.50
2019-06-20T01:43:50.471Z,25.27
2019-06-20T01:46:16.788Z,25.00
2019-06-20T01:48:47.237Z,24.30
2019-06-20T01:51:17.712Z,24.47
2019-06-20T01:53:48.386Z,23.90
2019-06-20T01:56:18.812Z,23.67
2019-06-20T01:58:49.224Z,25.23
2019-06-20T02:01:19.683Z,24.60
2019-06-20T02:03:50.166Z,25.40
2019-06-20T02:06:20.619Z,25.23
2019-06-20T02:08:51.076Z,25.57
2019-06-20T02:11:21.679Z,24.53
2019-06-20T02:14:06.422Z,25.97
2019-06-20T02:16:24.222Z,25.37
2019-06-20T02:18:54.678Z,24.30
2019-06-20T02:21:25.529Z,23.77
2019-06-20T02:23:55.988Z,25.43
2019-06-20T02:26:26.553Z,23.80
2019-06-20T02:28:56.957Z,23.57
2019-06-20T02:31:28.470Z,24.10
2019-06-20T02:33:58.866Z,24.00
2019-06-20T02:36:29.491Z,24.17
2019-06-20T02:38:59.920Z,24.00
2019-06-20T02:41:30.364Z,24.20
2019-06-20T02:44:01.163Z,23.03
2019-06-20T02:46:31.865Z,23.37
2019-06-20T02:49:02.389Z,24.37
2019-06-20T02:51:33.091Z,24.10
2019-06-20T02:54:03.695Z,23.97
2019-06-20T02:56:35.171Z,23.10
2019-06-20T02:59:05.618Z,22.70
2019-06-20T03:01:36.156Z,21.30
2019-06-20T03:04:06.613Z,21.67
2019-06-20T03:06:37.054Z,23.03
2019-06-20T03:09:08.236Z,21.77
2019-06-20T03:11:38.652Z,21.80
2019-06-20T03:14:09.150Z,22.40
2019-06-20T03:16:39.554Z,22.83
2019-06-20T03:19:09.938Z,21.70
2019-06-20T03:21:40.470Z,22.07
2019-06-20T03:24:11.051Z,22.60
2019-06-20T03:26:41.457Z,20.60
2019-06-20T03:29:11.826Z,21.37
2019-06-20T03:31:42.685Z,21.73
2019-06-20T03:34:13.217Z,21.13
2019-06-20T03:36:43.906Z,19.80
2019-06-20T03:39:14.299Z,20.20
2019-06-20T03:41:44.797Z,19.20
2019-06-20T03:44:15.458Z,19.67
2019-06-20T03:46:45.848Z,19.07
2019-06-20T03:49:16.329Z,20.47
2019-06-20T03:51:46.812Z,19.47
2019-06-20T03:54:17.261Z,19.30
2019-06-20T03:56:47.654Z,18.53
2019-06-20T03:59:18.069Z,19.43
2019-06-20T04:01:49.309Z,18.23
2019-06-20T04:04:19.983Z,19.13
2019-06-20T04:06:50.435Z,18.57
2019-06-20T04:09:20.867Z,18.97
2019-06-20T04:11:51.355Z,18.77
2019-06-20T04:14:21.771Z,18.83
2019-06-20T04:16:52.181Z,18.17
2019-06-20T04:19:22.623Z,18.73
2019-06-20T04:21:53.378Z,17.93
2019-06-20T04:24:23.778Z,18.17
2019-06-20T04:26:54.182Z,18.70
2019-06-20T04:29:24.840Z,18.80
2019-06-20T04:31:55.272Z,18.17
2019-06-20T04:34:25.742Z,18.17
2019-06-20T04:36:56.541Z,18.20
2019-06-20T04:39:27.015Z,18.00
2019-06-20T04:41:57.448Z,17.30
2019-06-20T04:44:27.984Z,18.80
2019-06-20T04:47:04.227Z,16.77
2019-06-20T04:49:34.671Z,17.37
2019-06-20T04:52:05.074Z,16.80
2019-06-20T04:54:35.706Z,16.73
2019-06-20T04:57:06.108Z,15.50
2019-06-20T04:59:36.864Z,16.03
2019-06-20T05:02:07.298Z,15.90
2019-06-20T05:04:37.697Z,15.53
2019-06-20T05:07:16.374Z,14.87
2019-06-20T05:09:46.918Z,15.57
2019-06-20T05:12:17.422Z,15.77
2019-06-20T05:14:48.023Z,15.10
2019-06-20T05:17:18.421Z,15.00
2019-06-20T05:19:49.113Z,15.43
2019-06-20T05:22:19.505Z,14.57
2019-06-20T05:24:50.027Z,14.50
2019-06-20T05:27:21.873Z,13.83
2019-06-20T05:29:53.357Z,13.83
2019-06-20T05:32:23.822Z,14.13
2019-06-20T05:34:55.330Z,13.43
2019-06-20T05:37:25.929Z,14.63
2019-06-20T05:39:56.383Z,13.83
2019-06-20T05:42:26.884Z,12.73
2019-06-20T05:44:57.254Z,14.60
2019-06-20T05:47:27.657Z,13.70
2019-06-20T05:49:58.089Z,13.17
2019-06-20T05:52:28.643Z,13.17
2019-06-20T05:54:59.094Z,12.87
2019-06-20T05:57:29.515Z,13.37
2019-06-20T06:00:00.948Z,12.93
2019-06-20T06:02:31.456Z,13.67
2019-06-20T06:05:01.873Z,13.47
2019-06-20T06:07:32.474Z,13.97
2019-06-20T06:10:04.443Z,13.10
2019-06-20T06:12:36.354Z,13.40
2019-06-20T06:15:07.401Z,13.67
2019-06-20T06:17:38.635Z,12.70
2019-06-20T06:20:10.922Z,13.70
2019-06-20T06:22:44.566Z,13.97
2019-06-20T06:25:13.519Z,13.43
2019-06-20T06:27:44.012Z,13.77
2019-06-20T06:30:15.914Z,13.87
2019-06-20T06:32:46.469Z,13.47
2019-06-20T06:35:17.189Z,13.60
2019-06-20T06:37:47.799Z,13.27
2019-06-20T06:40:18.742Z,13.10
2019-06-20T06:42:49.158Z,14.03
2019-06-20T06:45:21.245Z,13.80
2019-06-20T06:47:51.755Z,13.87
2019-06-20T06:50:22.465Z,13.40
2019-06-20T06:52:52.961Z,14.03
2019-06-20T06:55:27.224Z,13.67
2019-06-20T06:57:55.651Z,13.53
2019-06-20T07:00:26.417Z,12.70
2019-06-20T07:02:56.865Z,13.90
2019-06-20T07:05:27.631Z,13.10
2019-06-20T07:07:58.121Z,13.37
2019-06-20T07:10:28.611Z,13.93
2019-06-20T07:12:59.634Z,13.20
2019-06-20T07:15:30.534Z,13.13
2019-06-20T07:18:01.938Z,13.40
2019-06-20T07:20:32.416Z,14.40
2019-06-20T07:23:03.003Z,13.00
2019-06-20T07:25:33.599Z,13.60
2019-06-20T07:28:04.510Z,12.90
2019-06-20T07:30:36.094Z,13.57
2019-06-20T07:33:06.755Z,14.27
2019-06-20T07:35:41.423Z,13.40
2019-06-20T07:38:09.238Z,13.90
2019-06-20T07:40:39.724Z,13.50
2019-06-20T07:43:10.295Z,13.03
2019-06-20T07:45:40.734Z,14.20
2019-06-20T07:48:11.212Z,12.90
2019-06-20T07:50:42.183Z,13.83
2019-06-20T07:53:12.638Z,13.03
2019-06-20T07:55:43.438Z,12.30
2019-06-20T07:58:13.886Z,16.83
2019-06-20T08:00:44.819Z,17.40
2019-06-20T08:03:15.662Z,13.93
2019-06-20T08:05:46.099Z,12.80
2019-06-20T08:08:16.535Z,12.87
2019-06-20T08:10:47.018Z,13.07
2019-06-20T08:13:17.694Z,12.50
2019-06-20T08:15:48.277Z,12.77
2019-06-20T08:18:18.823Z,12.90
2019-06-20T08:20:49.379Z,12.57
2019-06-20T08:23:19.867Z,14.53
2019-06-20T08:25:50.489Z,12.80
2019-06-20T08:28:21.071Z,12.70
2019-06-20T08:30:51.738Z,13.10
2019-06-20T08:33:22.186Z,12.30
2019-06-20T08:35:52.787Z,12.63
2019-06-20T08:38:23.531Z,13.70
2019-06-20T08:40:56.505Z,13.43
2019-06-20T08:43:27.627Z,13.20
2019-06-20T08:45:59.502Z,12.87
2019-06-20T08:48:30.284Z,13.00
2019-06-20T08:51:02.175Z,12.07
2019-06-20T08:53:35.850Z,13.03
2019-06-20T08:56:06.688Z,12.80
2019-06-20T08:58:37.262Z,12.70
2019-06-20T09:03:39.409Z,13.87
2019-06-20T09:06:09.868Z,13.90
2019-06-20T09:08:40.729Z,13.87
2019-06-20T09:11:13.194Z,12.40
2019-06-20T09:13:43.890Z,16.30
2019-06-20T09:16:24.296Z,13.23
2019-06-20T09:18:46.601Z,12.90
2019-06-20T09:21:17.332Z,12.93
2019-06-20T09:23:47.717Z,12.30
2019-06-20T09:26:18.174Z,13.20
2019-06-20T09:28:48.932Z,13.00
2019-06-20T09:31:19.537Z,12.40
2019-06-20T09:33:52.117Z,12.30
2019-06-20T09:36:22.927Z,12.83
2019-06-20T09:38:53.988Z,11.43
2019-06-20T09:41:25.813Z,11.20
2019-06-20T09:43:58.493Z,10.90
2019-06-20T09:46:29.054Z,10.20
2019-06-20T09:48:59.873Z,10.97
2019-06-20T09:51:31.527Z,11.20
2019-06-20T09:54:02.012Z,11.13
2019-06-20T09:56:32.764Z,11.40
2019-06-20T09:59:03.401Z,11.40
2019-06-20T10:01:34.155Z,10.40
2019-06-20T10:04:05.106Z,11.03
2019-06-20T10:06:35.629Z,11.37
2019-06-20T10:09:08.056Z,11.17
2019-06-20T10:11:38.661Z,11.57
2019-06-20T10:14:10.282Z,10.10
2019-06-20T10:16:45.864Z,10.73
2019-06-20T10:19:13.514Z,10.33
2019-06-20T10:21:46.237Z,10.37
2019-06-20T10:24:16.789Z,10.07
2019-06-20T10:26:48.296Z,10.63
2019-06-20T10:29:19.882Z,10.63
2019-06-20T10:31:50.854Z,11.27
2019-06-20T10:34:21.552Z,11.50
2019-06-20T10:36:52.392Z,10.80
2019-06-20T10:39:23.038Z,11.13
2019-06-20T10:41:53.678Z,11.53
2019-06-20T10:44:24.122Z,11.33
2019-06-20T10:46:54.726Z,11.47
2019-06-20T10:49:25.357Z,12.40
2019-06-20T10:51:55.834Z,12.17
2019-06-20T10:54:26.514Z,12.00
2019-06-20T10:56:57.402Z,11.97
2019-06-20T10:59:27.832Z,11.50
2019-06-20T11:01:58.246Z,10.97
2019-06-20T11:04:28.888Z,11.37
2019-06-20T11:06:59.285Z,11.37
2019-06-20T11:09:29.945Z,11.30
2019-06-20T11:12:00.374Z,11.10
2019-06-20T11:14:30.828Z,11.10
2019-06-20T11:17:01.455Z,11.10
2019-06-20T11:19:32.089Z,10.60
2019-06-20T11:22:02.779Z,12.47
2019-06-20T11:24:33.410Z,12.43
2019-06-20T11:27:04.137Z,11.30
2019-06-20T11:29:35.043Z,10.67
2019-06-20T11:32:05.515Z,10.20
2019-06-20T11:34:37.729Z,10.90
2019-06-20T11:37:08.465Z,9.67
2019-06-20T11:39:38.988Z,9.90
2019-06-20T11:42:09.537Z,9.70
2019-06-20T11:44:40.866Z,9.50
2019-06-20T11:47:11.582Z,10.18
2019-06-20T11:49:42.521Z,9.45
2019-06-20T11:52:12.990Z,9.33
2019-06-20T11:54:43.628Z,8.87
2019-06-20T11:57:14.276Z,8.90
2019-06-20T11:59:44.684Z,9.60
2019-06-20T12:02:15.110Z,8.60
2019-06-20T12:04:46.904Z,7.78
2019-06-20T12:07:17.784Z,9.00
2019-06-20T12:09:49.181Z,7.90
2019-06-20T12:12:20.238Z,7.58
2019-06-20T12:14:50.778Z,8.18
2019-06-20T12:17:21.368Z,7.37
2019-06-20T12:19:52.228Z,6.92
2019-06-20T12:22:23.349Z,7.58
2019-06-20T12:24:54.133Z,7.30
2019-06-20T12:27:24.564Z,7.80
2019-06-20T12:29:55.021Z,7.40
2019-06-20T12:32:25.823Z,7.65
2019-06-20T12:34:57.293Z,7.12
2019-06-20T12:37:27.726Z,6.60
2019-06-20T12:39:58.423Z,6.87
2019-06-20T12:42:28.910Z,6.15
2019-06-20T12:44:59.335Z,5.40
2019-06-20T12:47:30.038Z,5.80
2019-06-20T12:50:00.587Z,5.92
2019-06-20T12:52:31.377Z,6.08
2019-06-20T12:55:01.796Z,5.70
2019-06-20T12:57:32.275Z,6.50
2019-06-20T13:00:03.232Z,6.05
2019-06-20T13:02:34.146Z,6.47
2019-06-20T13:05:06.971Z,6.47
2019-06-20T13:07:38.602Z,6.80
2019-06-20T13:10:09.807Z,5.90
2019-06-20T13:12:42.254Z,6.75
2019-06-20T13:15:12.895Z,6.60
2019-06-20T13:17:44.860Z,6.78
2019-06-20T13:20:16.061Z,5.87
2019-06-20T13:22:46.642Z,6.28
2019-06-20T13:25:17.606Z,5.72
2019-06-20T13:27:48.367Z,4.80
2019-06-20T13:30:21.270Z,5.05
2019-06-20T13:32:52.370Z,4.33
2019-06-20T13:35:23.190Z,4.45
2019-06-20T13:37:54.621Z,3.05
2019-06-20T13:40:25.543Z,3.30
2019-06-20T13:42:56.002Z,2.67
2019-06-20T13:45:27.303Z,2.65
2019-06-20T13:47:59.074Z,2.80
2019-06-20T13:50:29.498Z,2.52
2019-06-20T13:53:00.212Z,3.35
2019-06-20T13:55:30.826Z,3.30
2019-06-20T13:58:01.274Z,4.20
2019-06-20T14:00:33.468Z,3.67
2019-06-20T14:03:04.068Z,3.47
2019-06-20T14:05:34.733Z,3.10
2019-06-20T14:08:05.644Z,3.67
2019-06-20T14:10:36.086Z,3.58
2019-06-20T14:13:18.786Z,4.35
2019-06-20T14:15:38.907Z,3.87
2019-06-20T14:18:09.618Z,3.62
2019-06-20T14:20:40.459Z,4.00
2019-06-20T14:23:10.900Z,4.08
2019-06-20T14:25:42.424Z,3.77
2019-06-20T14:28:13.823Z,3.30
2019-06-20T14:30:45.004Z,3.62
2019-06-20T14:33:16.549Z,3.83
2019-06-20T14:35:47.857Z,3.50
2019-06-20T14:38:19.712Z,3.37
2019-06-20T14:40:50.607Z,3.67
2019-06-20T14:43:21.043Z,3.33
2019-06-20T14:45:51.491Z,3.60
2019-06-20T14:48:22.756Z,3.27
2019-06-20T14:50:53.546Z,3.25
2019-06-20T14:53:25.093Z,3.47
2019-06-20T14:55:55.672Z,3.22
2019-06-20T14:58:26.124Z,3.00
2019-06-20T15:00:57.916Z,2.60
2019-06-20T15:03:28.375Z,2.85
2019-06-20T15:05:59.256Z,2.67
2019-06-20T15:08:29.678Z,2.87
2019-06-20T15:11:00.192Z,2.62
2019-06-20T15:13:30.641Z,3.27
2019-06-20T15:16:01.236Z,3.00
2019-06-20T15:18:31.729Z,2.42
2019-06-20T15:21:02.380Z,2.72
2019-06-20T15:23:32.936Z,2.37
2019-06-20T15:26:03.406Z,1.90
2019-06-20T15:28:34.124Z,2.27
2019-06-20T15:31:05.070Z,2.25
2019-06-20T15:33:35.502Z,2.22
2019-06-20T15:36:06.391Z,2.30
2019-06-20T15:38:38.016Z,2.37
2019-06-20T15:41:08.436Z,2.90
2019-06-20T15:43:40.293Z,2.60
2019-06-20T15:46:10.850Z,2.37
2019-06-20T15:48:41.410Z,2.70
2019-06-20T15:51:12.073Z,3.27
2019-06-20T15:53:49.878Z,3.00
2019-06-20T15:56:20.312Z,3.10
2019-06-20T15:58:50.891Z,3.58
2019-06-20T16:01:21.490Z,3.92
2019-06-20T16:03:52.008Z,5.05
2019-06-20T16:06:22.642Z,5.17
2019-06-20T16:08:53.326Z,6.25
2019-06-20T16:11:24.030Z,5.10
2019-06-20T16:13:54.681Z,4.08
2019-06-20T16:16:25.476Z,4.30
2019-06-20T16:18:55.952Z,3.50
2019-06-20T16:21:26.482Z,3.52
2019-06-20T16:23:56.966Z,3.77
2019-06-20T16:26:27.552Z,3.60
2019-06-20T16:28:58.292Z,3.52
2019-06-20T16:31:28.876Z,3.65
2019-06-20T16:33:59.408Z,3.77
2019-06-20T16:36:29.862Z,3.67
2019-06-20T16:39:01.210Z,3.50
2019-06-20T16:41:33.333Z,3.85
2019-06-20T16:44:04.238Z,3.60
2019-06-20T16:46:34.636Z,3.45
2019-06-20T16:49:05.372Z,3.77
2019-06-20T16:51:35.910Z,4.53
2019-06-20T16:54:06.358Z,4.40
2019-06-20T16:56:37.019Z,4.22
2019-06-20T16:59:07.540Z,4.62
2019-06-20T17:01:39.301Z,4.70
2019-06-20T17:04:09.940Z,4.53
2019-06-20T17:06:40.815Z,4.20
2019-06-20T17:09:11.270Z,4.30
2019-06-20T17:11:41.953Z,4.97
2019-06-20T17:14:12.603Z,4.90
2019-06-20T17:16:43.353Z,4.83
2019-06-20T17:19:14.097Z,4.75
2019-06-20T17:21:44.919Z,4.50
2019-06-20T17:24:15.346Z,4.45
2019-06-20T17:26:46.097Z,4.77
2019-06-20T17:29:16.726Z,4.55
2019-06-20T17:31:47.654Z,5.03
2019-06-20T17:34:18.099Z,4.92
2019-06-20T17:37:34.857Z,4.92
2019-06-20T17:40:10.808Z,5.03
2019-06-20T17:42:41.317Z,5.35
2019-06-20T17:45:14.118Z,5.12
2019-06-20T17:47:44.604Z,5.00
2019-06-20T17:50:16.981Z,5.58
2019-06-20T17:52:47.504Z,5.40
2019-06-20T17:55:18.947Z,5.10
2019-06-20T17:57:49.508Z,5.25
2019-06-20T18:00:21.682Z,5.20
2019-06-20T18:02:52.174Z,4.90
2019-06-20T18:05:24.210Z,5.00
2019-06-20T18:07:55.949Z,4.90
2019-06-20T18:10:28.095Z,5.20
2019-06-20T18:12:58.670Z,4.97
2019-06-20T18:15:29.343Z,5.03
2019-06-20T18:17:59.966Z,5.70
2019-06-20T18:20:30.616Z,5.67
2019-06-20T18:23:01.150Z,5.73
2019-06-20T18:25:33.160Z,6.30
2019-06-20T18:28:03.894Z,6.00
2019-06-20T18:30:41.164Z,6.07
2019-06-20T18:33:11.752Z,6.20
2019-06-20T18:35:42.230Z,6.37
2019-06-20T18:38:13.096Z,7.33
2019-06-20T18:40:43.656Z,6.50
2019-06-20T18:43:14.156Z,7.10
2019-06-20T18:45:44.650Z,7.00
2019-06-20T18:48:15.047Z,7.10
2019-06-20T18:50:45.900Z,7.73
2019-06-20T18:53:17.558Z,7.30
2019-06-20T18:55:48.358Z,7.23
2019-06-20T18:58:18.837Z,7.37
2019-06-20T19:00:49.667Z,7.53
2019-06-20T19:03:21.410Z,7.73
2019-06-20T19:05:52.661Z,8.00
2019-06-20T19:08:24.427Z,7.70
2019-06-20T19:10:55.213Z,7.00
2019-06-20T19:13:25.716Z,5.83
2019-06-20T19:15:56.675Z,5.77
2019-06-20T19:18:27.283Z,5.50
2019-06-20T19:20:57.979Z,5.77
2019-06-20T19:23:28.537Z,5.50
2019-06-20T19:25:59.303Z,4.83
2019-06-20T19:28:29.889Z,5.67
2019-06-20T19:31:00.783Z,5.30
2019-06-20T19:33:31.416Z,4.57
2019-06-20T19:36:02.093Z,4.90
2019-06-20T19:38:32.599Z,4.67
2019-06-20T19:41:03.204Z,4.37
2019-06-20T19:43:33.780Z,4.33
2019-06-20T19:46:04.379Z,3.70
2019-06-20T19:48:36.848Z,4.33
2019-06-20T19:51:07.606Z,4.07
2019-06-20T19:53:38.282Z,4.50
2019-06-20T19:56:09.749Z,4.50
2019-06-20T19:58:40.250Z,4.13
2019-06-20T20:01:10.868Z,4.30
2019-06-20T20:03:41.412Z,4.17
2019-06-20T20:06:11.920Z,3.90
2019-06-20T20:08:42.578Z,3.27
2019-06-20T20:11:24.634Z,3.43
2019-06-20T20:13:55.444Z,3.40
2019-06-20T20:16:26.152Z,3.67
2019-06-20T20:18:56.732Z,3.30
2019-06-20T20:21:27.157Z,4.13
2019-06-20T20:23:57.544Z,3.50
2019-06-20T20:26:28.452Z,3.27
2019-06-20T20:28:58.878Z,3.47
2019-06-20T20:31:29.606Z,15.00
2019-06-20T20:34:00.342Z,11.93
2019-06-20T20:36:30.757Z,5.53
2019-06-20T20:39:01.481Z,3.83
2019-06-20T20:41:33.493Z,3.30
2019-06-20T20:44:03.945Z,3.47
2019-06-20T20:46:34.663Z,3.60
2019-06-20T20:49:05.295Z,3.80
2019-06-20T20:51:36.143Z,4.30
2019-06-20T20:54:07.787Z,4.30
2019-06-20T20:56:38.467Z,4.30
2019-06-20T20:59:09.003Z,3.90
2019-06-20T21:01:39.405Z,4.37
2019-06-20T21:04:10.207Z,4.43
2019-06-20T21:06:40.704Z,4.40
2019-06-20T21:09:11.178Z,5.13
2019-06-20T21:11:41.672Z,4.73
2019-06-20T21:14:12.138Z,4.60
2019-06-20T21:16:42.634Z,4.40
2019-06-20T21:19:13.129Z,5.17
2019-06-20T21:21:43.522Z,5.27
2019-06-20T21:24:14.068Z,4.73
2019-06-20T21:26:49.937Z,5.03
2019-06-20T21:29:17.967Z,5.30
2019-06-20T21:31:49.494Z,5.40
2019-06-20T21:34:21.334Z,5.20
2019-06-20T21:36:52.003Z,5.07
2019-06-20T21:39:22.567Z,5.27
2019-06-20T21:41:53.339Z,4.57
2019-06-20T21:44:23.877Z,4.43
2019-06-20T21:46:54.460Z,4.33
2019-06-20T21:49:25.378Z,4.70
2019-06-20T21:51:55.923Z,4.70
2019-06-20T21:54:26.353Z,4.57
2019-06-20T21:56:56.991Z,4.60
2019-06-20T21:59:27.491Z,4.80
2019-06-20T22:01:58.113Z,4.30
2019-06-20T22:04:28.717Z,4.20
2019-06-20T22:06:59.589Z,4.80
2019-06-20T22:09:30.194Z,4.23
2019-06-20T22:12:00.799Z,4.67
2019-06-20T22:14:32.511Z,4.20
2019-06-20T22:17:03.356Z,4.63
2019-06-20T22:19:33.801Z,4.80
2019-06-20T22:22:04.674Z,4.73
2019-06-20T22:24:35.295Z,5.10
2019-06-20T22:27:06.177Z,4.70
2019-06-20T22:29:36.854Z,5.00
2019-06-20T22:32:07.534Z,4.97
2019-06-20T22:34:37.986Z,4.87
2019-06-20T22:37:08.763Z,6.10
2019-06-20T22:39:39.488Z,5.77
2019-06-20T22:42:11.864Z,5.60
2019-06-20T22:44:42.400Z,5.90
2019-06-20T22:47:12.834Z,5.73
2019-06-20T22:49:43.553Z,5.80
2019-06-20T22:52:14.123Z,6.23
2019-06-20T22:54:44.750Z,5.90
2019-06-20T22:57:15.349Z,6.27
2019-06-20T22:59:46.727Z,6.80
2019-06-20T23:02:17.390Z,7.20
2019-06-20T23:04:48.092Z,6.57
2019-06-20T23:07:18.488Z,6.43
2019-06-20T23:09:49.177Z,7.10
2019-06-20T23:12:19.868Z,6.37
2019-06-20T23:14:50.439Z,7.20
2019-06-20T23:17:21.021Z,7.07
2019-06-20T23:19:51.821Z,7.80
2019-06-20T23:22:22.271Z,7.53
2019-06-20T23:24:52.784Z,8.03
2019-06-20T23:27:23.473Z,8.37
2019-06-20T23:29:53.886Z,8.57
2019-06-20T23:32:24.701Z,8.67
2019-06-20T23:34:55.108Z,9.27
2019-06-20T23:37:25.564Z,9.63
2019-06-20T23:39:55.962Z,9.03
2019-06-20T23:42:26.663Z,9.00
2019-06-20T23:44:57.235Z,8.30
2019-06-20T23:47:28.216Z,8.50
2019-06-20T23:49:58.907Z,8.80
2019-06-20T23:52:32.077Z,8.27
2019-06-20T23:55:02.566Z,8.90
2019-06-20T23:57:33.072Z,9.00
